Time;durP1;ratioP1;P1;durP2;ratioP2;P2;SDS_P1;SDS_P2;PMS_P1;PMS_P2;Temp;Humidity;BMP_temperature;BMP_pressure;BME280_temperature;BME280_humidity;BME280_pressure;Samples;Min_cycle;Max_cycle;Signal;HPM_P1;HPM_P2
2022/10/20 00:01:20;;;;;;;13.45;9.80;;;7.10;99.90;;;-144.05;81.09;125687.94;5015366;28;20029;-81
2022/10/20 00:03:48;;;;;;;15.20;10.07;;;7.10;99.90;;;-144.05;81.43;125687.94;5015503;28;20037;-79
2022/10/20 00:06:21;;;;;;;18.95;10.38;;;7.10;99.90;;;-144.05;81.57;125687.94;5014030;28;20428;-81
2022/10/20 00:08:48;;;;;;;15.93;9.30;;;7.10;99.90;;;-144.05;81.61;125687.94;5015457;28;20022;-81
2022/10/20 00:11:18;;;;;;;17.92;10.07;;;7.10;99.90;;;-144.05;81.71;125687.94;5015156;28;20076;-81
2022/10/20 00:13:49;;;;;;;16.63;9.38;;;7.10;99.90;;;-144.05;81.24;125687.94;5013797;28;20030;-79
2022/10/20 00:16:16;;;;;;;17.15;10.00;;;7.10;99.90;;;-144.05;81.40;125687.94;5013945;28;20121;-81
2022/10/20 00:18:42;;;;;;;19.42;9.48;;;7.10;99.90;;;-144.05;81.39;125687.94;5015011;28;20030;-80
2022/10/20 00:21:14;;;;;;;15.27;8.75;;;7.10;99.90;;;-144.05;81.56;125687.94;5015129;28;20038;-80
2022/10/20 00:23:40;;;;;;;13.70;9.13;;;7.10;99.90;;;-144.05;81.36;125687.94;4997358;28;20033;-80
2022/10/20 00:26:29;;;;;;;15.15;9.25;;;7.10;99.90;;;-144.05;81.57;125687.94;5015191;28;20033;-81
2022/10/20 00:28:56;;;;;;;17.50;9.68;;;7.10;99.90;;;-144.05;81.72;125687.94;5014823;28;20502;-80
2022/10/20 00:31:24;;;;;;;15.73;9.55;;;7.10;99.90;;;-144.05;81.73;125687.94;5014765;28;20084;-80
2022/10/20 00:33:51;;;;;;;15.27;10.02;;;7.00;99.90;;;-144.05;81.31;125687.94;5013507;28;20026;-79
2022/10/20 00:36:20;;;;;;;15.65;8.82;;;7.10;99.90;;;-144.05;81.41;125687.94;5014891;28;20030;-80
2022/10/20 00:38:47;;;;;;;17.10;9.63;;;7.00;99.90;;;-144.05;81.09;125687.94;5014604;28;20600;-79
2022/10/20 00:41:20;;;;;;;15.48;9.15;;;7.00;99.90;;;-144.05;81.46;125687.94;4996619;28;20414;-80
2022/10/20 00:44:41;;;;;;;15.00;8.98;;;7.00;99.90;;;-144.05;82.05;125687.94;5014749;28;20026;-79
2022/10/20 00:47:41;;;;;;;17.10;10.05;;;7.00;99.90;;;-144.05;82.42;125687.94;5014875;28;20029;-82
2022/10/20 00:50:24;;;;;;;16.58;10.07;;;7.10;99.90;;;-144.05;82.12;125687.94;5014219;28;20042;-79
2022/10/20 00:52:53;;;;;;;17.60;9.70;;;7.10;99.90;;;-144.05;81.89;125687.94;5014872;28;20032;-81
2022/10/20 00:55:27;;;;;;;20.88;9.98;;;7.20;99.90;;;-144.05;81.36;125687.94;5013327;28;20481;-82
2022/10/20 00:57:58;;;;;;;13.98;9.18;;;7.20;99.90;;;-144.05;81.76;125687.94;5013412;28;20541;-79
2022/10/20 01:00:26;;;;;;;21.50;9.98;;;7.20;99.90;;;-144.05;81.71;125687.94;5014616;28;20040;-81
2022/10/20 01:02:58;;;;;;;19.75;10.05;;;7.20;99.90;;;-144.05;81.67;125687.94;5014568;28;20438;-79
2022/10/20 01:05:25;;;;;;;16.00;9.70;;;7.20;99.90;;;-144.05;81.62;125687.94;5014361;28;20226;-80
2022/10/20 01:07:51;;;;;;;14.73;8.93;;;7.20;99.90;;;-144.05;81.56;125687.94;5014795;28;20054;-80
2022/10/20 01:10:18;;;;;;;11.43;8.50;;;7.20;99.90;;;-144.05;81.17;125687.94;5024372;28;20036;-80
2022/10/20 01:13:18;;;;;;;12.27;9.05;;;7.10;99.90;;;-144.05;81.32;125687.94;5022335;28;20058;-80
2022/10/20 01:16:36;;;;;;;13.65;8.73;;;7.10;99.90;;;-144.05;81.20;125687.94;5020501;28;20152;-80
2022/10/20 01:19:37;;;;;;;12.88;8.77;;;7.10;99.90;;;-144.05;81.01;125687.94;5007493;28;20401;-81
2022/10/20 01:22:35;;;;;;;17.98;9.32;;;7.10;99.90;;;-144.05;81.33;125687.94;5014917;28;20045;-79
2022/10/20 01:25:42;;;;;;;14.88;9.18;;;7.10;99.90;;;-144.05;81.55;125687.94;5014601;28;20121;-78
2022/10/20 01:28:22;;;;;;;16.00;8.95;;;7.00;99.90;;;-144.05;81.34;125687.94;5014556;28;20029;-81
2022/10/20 01:30:59;;;;;;;18.10;9.25;;;7.10;99.90;;;-144.05;80.99;125687.94;4996974;28;20405;-79
2022/10/20 01:33:43;;;;;;;12.32;8.85;;;7.00;99.90;;;-144.05;81.09;125687.94;5014316;28;20038;-80
2022/10/20 01:36:38;;;;;;;14.48;8.02;;;6.90;99.90;;;-144.05;81.71;125687.94;5014608;28;20101;-82
2022/10/20 01:39:21;;;;;;;13.30;8.60;;;7.00;99.90;;;-144.05;81.72;125687.94;5011694;28;20038;-81
2022/10/20 01:42:08;;;;;;;15.75;9.38;;;7.00;99.90;;;-144.05;81.82;125687.94;5002918;28;20120;-82
2022/10/20 01:44:37;;;;;;;13.40;8.25;;;7.00;99.90;;;-144.05;81.36;125687.94;5014758;28;20037;-80
2022/10/20 01:47:07;;;;;;;15.57;7.78;;;7.00;99.90;;;-144.05;81.69;125687.94;5015365;28;20057;-82
2022/10/20 01:49:33;;;;;;;13.45;8.35;;;7.00;99.90;;;-144.05;81.49;125687.94;5014019;28;20026;-80
2022/10/20 01:52:00;;;;;;;13.00;8.05;;;7.10;99.90;;;-144.05;81.46;125687.94;5015048;28;20036;-82
2022/10/20 01:54:29;;;;;;;14.15;8.43;;;7.10;99.90;;;-144.05;81.84;125687.94;5022594;28;20062;-80
2022/10/20 01:57:59;;;;;;;13.18;9.00;;;7.10;99.90;;;-144.05;81.76;125687.94;5012499;28;20565;-79
2022/10/20 02:00:25;;;;;;;14.30;8.27;;;7.10;99.90;;;-144.05;81.73;125687.94;5001673;28;20042;-79
2022/10/20 02:03:33;;;;;;;16.60;8.10;;;7.10;99.90;;;-144.05;81.87;125687.94;5013589;28;20097;-79
2022/10/20 02:06:33;;;;;;;17.98;8.27;;;7.10;99.90;;;-144.05;81.91;125687.94;5013440;28;20125;-80
2022/10/20 02:09:07;;;;;;;15.23;7.65;;;7.00;99.90;;;-144.05;81.46;125687.94;5013425;28;20084;-80
2022/10/20 02:12:05;;;;;;;15.55;8.65;;;7.00;99.90;;;-144.05;81.12;125687.94;4996122;28;20057;-79
2022/10/20 02:14:32;;;;;;;12.05;7.70;;;6.90;99.90;;;-144.05;81.37;125687.94;4995674;28;20132;-81
2022/10/20 02:17:13;;;;;;;16.45;8.75;;;6.90;99.90;;;-144.05;82.03;125687.94;5012281;28;20030;-80
2022/10/20 02:19:43;;;;;;;15.43;8.25;;;6.90;99.90;;;-144.05;81.52;125687.94;5013182;28;20060;-80
2022/10/20 02:22:15;;;;;;;13.10;8.43;;;7.00;99.90;;;-144.05;81.77;125687.94;5013302;28;20462;-81
2022/10/20 02:24:44;;;;;;;13.95;9.32;;;6.90;99.90;;;-144.05;81.76;125687.94;5013074;28;20045;-80
2022/10/20 02:27:32;;;;;;;13.30;8.13;;;6.90;99.90;;;-144.05;82.26;125687.94;5013179;28;20026;-80
2022/10/20 02:30:12;;;;;;;15.52;9.35;;;7.00;99.90;;;-144.05;82.02;125687.94;5011579;28;20026;-81
2022/10/20 02:32:43;;;;;;;11.73;8.85;;;7.00;99.90;;;-144.05;81.64;125687.94;4995372;28;20069;-80
2022/10/20 02:35:16;;;;;;;15.57;8.52;;;7.00;99.90;;;-144.05;82.02;125687.94;5011873;28;20036;-79
2022/10/20 02:37:42;;;;;;;16.35;9.35;;;7.00;99.90;;;-144.05;81.49;125687.94;5012926;28;20485;-80
2022/10/20 02:40:08;;;;;;;11.80;7.95;;;7.00;99.90;;;-144.05;81.45;125687.94;5012982;28;20103;-79
2022/10/20 02:42:34;;;;;;;17.48;8.80;;;7.00;99.90;;;-144.05;81.39;125687.94;5012782;28;20042;-81
2022/10/20 02:45:01;;;;;;;12.38;9.07;;;7.10;99.90;;;-144.05;81.10;125687.94;4994988;28;20508;-81
2022/10/20 02:47:27;;;;;;;14.07;8.32;;;7.00;99.90;;;-144.05;81.16;125687.94;5013000;28;20104;-81
2022/10/20 02:49:52;;;;;;;15.25;8.35;;;7.10;99.90;;;-144.05;81.18;125687.94;5011585;28;20105;-81
2022/10/20 02:52:18;;;;;;;15.68;8.00;;;7.10;99.90;;;-144.05;81.41;125687.94;5012795;28;20469;-81
2022/10/20 02:54:44;;;;;;;13.82;8.27;;;7.10;99.90;;;-144.05;81.48;125687.94;5012842;28;20097;-81
2022/10/20 02:57:10;;;;;;;15.63;8.93;;;7.10;99.90;;;-144.05;81.57;125687.94;4994874;28;20057;-79
2022/10/20 02:59:36;;;;;;;17.27;8.85;;;7.10;99.90;;;-144.05;81.07;125687.94;4994943;28;20025;-79
2022/10/20 03:02:02;;;;;;;12.35;8.52;;;7.10;99.90;;;-144.05;81.10;125687.94;5013030;28;20105;-81
2022/10/20 03:04:28;;;;;;;12.70;8.23;;;7.10;99.90;;;-144.05;81.30;125687.94;5012836;28;20029;-79
2022/10/20 03:06:54;;;;;;;13.85;8.32;;;7.10;99.90;;;-144.05;80.97;125687.94;5012326;28;20040;-81
2022/10/20 03:09:20;;;;;;;16.98;8.57;;;7.10;99.90;;;-144.05;81.17;125687.94;4995070;28;20143;-79
2022/10/20 03:11:46;;;;;;;12.57;7.60;;;7.10;99.90;;;-144.05;80.80;125687.94;5011127;28;20377;-80
2022/10/20 03:14:12;;;;;;;14.82;8.10;;;7.10;99.90;;;-144.05;80.69;125687.94;5011133;28;20029;-80
2022/10/20 03:16:38;;;;;;;12.15;7.43;;;7.10;99.90;;;-144.05;80.73;125687.94;5012758;28;20033;-78
2022/10/20 03:19:04;;;;;;;12.40;7.53;;;7.00;99.90;;;-144.05;81.12;125687.94;5012720;28;20555;-79
2022/10/20 03:21:30;;;;;;;13.05;8.15;;;7.00;99.90;;;-144.05;81.10;125687.94;5012164;28;20042;-82
2022/10/20 03:23:56;;;;;;;12.40;7.70;;;7.10;99.90;;;-144.05;81.15;125687.94;5012430;28;20113;-80
2022/10/20 03:26:22;;;;;;;14.48;7.53;;;7.00;99.90;;;-144.05;80.89;125687.94;5012691;28;20030;-81
2022/10/20 03:28:47;;;;;;;13.80;8.63;;;7.00;99.90;;;-144.05;80.80;125687.94;5012742;28;20030;-81
2022/10/20 03:31:13;;;;;;;11.63;8.00;;;7.00;99.90;;;-144.05;81.25;125687.94;5012704;28;20457;-80
2022/10/20 03:33:39;;;;;;;14.57;8.20;;;7.00;99.90;;;-144.05;81.14;125687.94;5012811;28;20045;-82
2022/10/20 03:36:05;;;;;;;12.00;7.90;;;7.00;99.90;;;-144.05;81.21;125687.94;5012722;28;20052;-81
2022/10/20 03:38:31;;;;;;;12.55;7.95;;;7.00;99.90;;;-144.05;81.30;125687.94;4995208;28;20481;-80
2022/10/20 03:40:57;;;;;;;14.15;8.07;;;7.00;99.90;;;-144.05;81.51;125687.94;5012829;28;20045;-80
2022/10/20 03:43:23;;;;;;;13.98;8.20;;;7.00;99.90;;;-144.05;81.34;125687.94;5012818;28;20045;-79
2022/10/20 03:45:50;;;;;;;12.88;8.15;;;7.00;99.90;;;-144.05;81.04;125687.94;4995023;28;20034;-80
2022/10/20 03:48:16;;;;;;;14.05;8.15;;;7.00;99.90;;;-144.05;80.82;125687.94;5013081;28;20121;-80
2022/10/20 03:50:42;;;;;;;13.00;8.27;;;6.90;99.90;;;-144.05;80.75;125687.94;5011543;28;20045;-79
2022/10/20 03:53:15;;;;;;;15.10;8.77;;;6.90;99.90;;;-144.05;81.37;125687.94;5013024;28;20033;-80
2022/10/20 03:55:40;;;;;;;15.35;8.85;;;6.90;99.90;;;-144.05;81.14;125687.94;5011335;28;20088;-80
2022/10/20 03:58:06;;;;;;;13.40;8.70;;;6.90;99.90;;;-144.05;81.24;125687.94;4995027;28;20524;-81
2022/10/20 04:00:32;;;;;;;17.50;8.30;;;6.90;99.90;;;-144.05;81.07;125687.94;5012825;28;20061;-81
2022/10/20 04:02:58;;;;;;;16.95;8.82;;;7.00;99.90;;;-144.05;81.29;125687.94;5012593;28;20025;-81
2022/10/20 04:05:24;;;;;;;17.42;9.05;;;6.90;99.90;;;-144.05;81.41;125687.94;5012812;28;20061;-83
2022/10/20 04:07:49;;;;;;;15.35;8.75;;;6.90;99.90;;;-144.05;81.35;125687.94;5012790;28;20022;-80
2022/10/20 04:10:16;;;;;;;12.60;8.07;;;7.00;99.90;;;-144.05;80.77;125687.94;5011345;28;20058;-80
2022/10/20 04:12:42;;;;;;;15.13;8.23;;;7.00;99.90;;;-144.05;80.85;125687.94;4994855;28;20025;-81
2022/10/20 04:15:09;;;;;;;15.80;8.35;;;7.00;99.90;;;-144.05;80.82;125687.94;5012594;28;20040;-81
2022/10/20 04:17:36;;;;;;;14.88;9.05;;;7.00;99.90;;;-144.05;80.44;125687.94;5012397;28;20061;-83
2022/10/20 04:20:06;;;;;;;10.82;7.65;;;7.00;99.90;;;-144.05;80.54;125687.94;5012549;28;20109;-80
2022/10/20 04:22:32;;;;;;;12.43;8.55;;;7.00;99.90;;;-144.05;80.70;125687.94;4995216;28;20030;-81
2022/10/20 04:24:57;;;;;;;15.10;8.90;;;6.90;99.90;;;-144.05;80.91;125687.94;5012821;28;20026;-80
2022/10/20 04:27:23;;;;;;;16.30;8.57;;;6.90;99.90;;;-144.05;80.85;125687.94;5012790;28;20022;-82
2022/10/20 04:29:49;;;;;;;13.40;8.55;;;6.90;99.90;;;-144.05;80.81;125687.94;5012809;28;20449;-81
2022/10/20 04:32:15;;;;;;;10.45;7.63;;;7.00;99.90;;;-144.05;80.87;125687.94;5012910;28;20037;-81
2022/10/20 04:34:41;;;;;;;16.55;8.85;;;6.90;99.90;;;-144.05;80.87;125687.94;5015898;28;20393;-80
2022/10/20 04:37:07;;;;;;;15.68;8.60;;;6.90;99.90;;;-144.05;81.11;125687.94;4998833;28;20128;-80
2022/10/20 04:39:33;;;;;;;14.98;10.55;;;6.90;99.90;;;-144.05;81.18;125687.94;5016054;28;20092;-81
2022/10/20 04:41:59;;;;;;;13.18;8.85;;;6.90;99.90;;;-144.05;81.09;125687.94;5018698;28;20025;-80
2022/10/20 04:44:25;;;;;;;16.33;9.43;;;6.90;99.90;;;-144.05;80.92;125687.94;5028267;28;20022;-79
2022/10/20 04:46:54;;;;;;;15.80;9.82;;;6.90;99.90;;;-144.05;81.07;125687.94;5016386;28;20037;-80
2022/10/20 04:49:20;;;;;;;15.32;9.40;;;6.90;99.90;;;-144.05;81.04;125687.94;5016214;28;20029;-79
2022/10/20 04:51:46;;;;;;;12.40;8.70;;;6.90;99.90;;;-144.05;80.67;125687.94;5016210;28;20033;-78
2022/10/20 04:54:12;;;;;;;15.57;9.02;;;6.90;99.90;;;-144.05;81.00;125687.94;5016080;28;20105;-79
2022/10/20 04:56:37;;;;;;;15.73;9.65;;;6.80;99.90;;;-144.05;81.07;125687.94;5016051;28;20109;-81
2022/10/20 04:59:04;;;;;;;23.70;10.07;;;6.80;99.90;;;-144.05;81.22;125687.94;5016014;28;20412;-81
2022/10/20 05:01:31;;;;;;;16.65;9.60;;;6.80;99.90;;;-144.05;81.42;125687.94;5023810;28;20037;-81
2022/10/20 05:03:57;;;;;;;14.57;9.68;;;6.80;99.90;;;-144.05;81.31;125687.94;5017926;28;20092;-79
2022/10/20 05:06:28;;;;;;;15.27;9.98;;;6.80;99.90;;;-144.05;81.19;125687.94;5016057;28;20033;-79
2022/10/20 05:09:00;;;;;;;18.25;10.55;;;6.90;99.90;;;-144.05;81.14;125687.94;4999561;28;20030;-80
2022/10/20 05:11:30;;;;;;;17.63;9.77;;;6.80;99.90;;;-144.05;81.14;125687.94;5017110;28;20446;-79
2022/10/20 05:13:56;;;;;;;15.93;10.30;;;6.80;99.90;;;-144.05;81.01;125687.94;5018299;28;20025;-81
2022/10/20 05:16:23;;;;;;;16.10;10.00;;;6.80;99.90;;;-144.05;81.23;125687.94;5018810;28;20025;-82
2022/10/20 05:18:51;;;;;;;20.27;10.27;;;6.80;99.90;;;-144.05;81.34;125687.94;5016639;28;20041;-81
2022/10/20 05:21:29;;;;;;;18.08;10.20;;;6.80;99.90;;;-144.05;81.11;125687.94;5017380;28;20041;-80
2022/10/20 05:24:05;;;;;;;16.77;10.18;;;6.80;99.90;;;-144.05;81.23;125687.94;5017484;28;20033;-81
2022/10/20 05:26:36;;;;;;;20.08;10.55;;;6.80;99.90;;;-144.05;81.15;125687.94;4999919;28;20045;-82
2022/10/20 05:29:09;;;;;;;18.42;10.65;;;6.80;99.90;;;-144.05;81.08;125687.94;5018015;28;20034;-80
2022/10/20 05:31:42;;;;;;;20.45;10.15;;;6.80;99.90;;;-144.05;81.35;125687.94;5015784;28;20022;-81
2022/10/20 05:34:10;;;;;;;19.63;11.48;;;6.80;99.90;;;-144.05;80.96;125687.94;5015878;28;20048;-81
2022/10/20 05:36:37;;;;;;;18.02;10.68;;;6.90;99.90;;;-144.05;81.05;125687.94;5017089;28;20030;-80
2022/10/20 05:39:03;;;;;;;20.52;10.63;;;6.90;99.90;;;-144.05;80.85;125687.94;5015705;28;20057;-82
2022/10/20 05:41:32;;;;;;;20.42;11.35;;;6.90;99.90;;;-144.05;80.92;125687.94;5001555;28;20091;-81
2022/10/20 05:44:03;;;;;;;18.42;10.68;;;6.90;99.90;;;-144.05;80.84;125687.94;5018906;28;20030;-81
2022/10/20 05:46:36;;;;;;;17.67;10.05;;;7.00;99.90;;;-144.05;80.98;125687.94;5018561;28;20034;-82
2022/10/20 05:49:03;;;;;;;17.67;11.13;;;7.00;99.90;;;-144.05;80.96;125687.94;5000950;28;20026;-78
2022/10/20 05:51:35;;;;;;;15.27;10.13;;;7.00;99.90;;;-144.05;80.85;125687.94;5017529;28;20551;-80
2022/10/20 05:54:03;;;;;;;19.83;11.52;;;7.10;99.90;;;-144.05;80.66;125687.94;5018885;28;20034;-82
2022/10/20 05:56:30;;;;;;;15.65;10.00;;;7.10;99.90;;;-144.05;80.22;125687.94;5018851;28;20037;-80
2022/10/20 05:58:57;;;;;;;17.92;10.25;;;7.20;99.90;;;-144.05;80.35;125687.94;5017705;28;20084;-83
2022/10/20 06:01:38;;;;;;;18.92;10.63;;;7.20;99.90;;;-144.05;80.17;125687.94;5016546;28;20030;-80
2022/10/20 06:04:07;;;;;;;18.38;11.27;;;7.20;99.90;;;-144.05;79.98;125687.94;5017680;28;20091;-82
2022/10/20 06:06:34;;;;;;;20.45;10.45;;;7.20;99.90;;;-144.05;80.07;125687.94;5001680;28;20032;-80
2022/10/20 06:09:07;;;;;;;14.18;9.38;;;7.20;99.90;;;-144.05;80.00;125687.94;5029118;28;20033;-83
2022/10/20 06:11:34;;;;;;;14.48;10.02;;;7.20;99.90;;;-144.05;80.10;125687.94;5028895;28;20025;-81
2022/10/20 06:14:00;;;;;;;20.55;10.32;;;7.10;99.90;;;-144.05;80.00;125687.94;5027684;28;20037;-82
2022/10/20 06:16:27;;;;;;;15.07;10.02;;;7.20;99.90;;;-144.05;80.05;125687.94;5012788;28;20030;-79
2022/10/20 06:18:53;;;;;;;21.40;10.35;;;7.10;99.90;;;-144.05;79.86;125687.94;5015718;28;20097;-82
2022/10/20 06:21:30;;;;;;;19.35;10.18;;;7.20;99.90;;;-144.05;79.97;125687.94;5034007;28;20046;-80
2022/10/20 06:24:03;;;;;;;15.30;10.00;;;7.20;99.90;;;-144.05;79.84;125687.94;5034047;28;20033;-80
2022/10/20 06:26:32;;;;;;;16.80;10.18;;;7.30;99.90;;;-144.05;79.97;125687.94;5032655;28;20049;-82
2022/10/20 06:28:59;;;;;;;15.93;11.05;;;7.20;99.90;;;-144.05;79.90;125687.94;5032937;28;20058;-80
2022/10/20 06:31:31;;;;;;;17.98;11.15;;;7.30;99.90;;;-144.05;79.89;125687.94;5033056;28;20043;-79
2022/10/20 06:33:58;;;;;;;15.23;10.00;;;7.30;99.90;;;-144.05;79.46;125687.94;5016423;28;20030;-80
2022/10/20 06:36:26;;;;;;;14.90;10.75;;;7.40;99.90;;;-144.05;79.37;125687.94;5015396;28;20025;-83
2022/10/20 06:38:58;;;;;;;16.73;9.95;;;7.40;99.90;;;-144.05;79.43;125687.94;5016576;28;20489;-79
2022/10/20 06:41:26;;;;;;;17.50;10.13;;;7.40;99.90;;;-144.05;79.32;125687.94;4998479;28;20073;-81
2022/10/20 06:43:57;;;;;;;16.92;10.43;;;7.50;99.90;;;-144.05;79.03;125687.94;5014621;28;20397;-81
2022/10/20 06:46:26;;;;;;;16.50;10.00;;;7.50;99.90;;;-144.05;79.03;125687.94;4998392;28;20061;-81
2022/10/20 06:48:51;;;;;;;15.05;9.35;;;7.60;99.90;;;-144.05;78.70;125687.94;5015412;28;20049;-80
2022/10/20 06:51:22;;;;;;;15.55;10.40;;;7.60;99.90;;;-144.05;78.68;125687.94;5015488;28;20085;-82
2022/10/20 06:53:51;;;;;;;16.30;10.10;;;7.60;99.90;;;-144.05;78.58;125687.94;5015607;28;20026;-81
2022/10/20 06:56:24;;;;;;;22.55;10.45;;;7.70;99.90;;;-144.05;78.60;125687.94;4996375;28;20497;-81
2022/10/20 06:58:54;;;;;;;15.50;9.70;;;7.70;99.90;;;-144.05;78.21;125687.94;5015012;28;20454;-79
2022/10/20 07:01:30;;;;;;;15.90;10.52;;;7.80;99.90;;;-144.05;78.01;125687.94;4997667;28;20129;-81
2022/10/20 07:04:05;;;;;;;18.58;9.80;;;7.80;99.90;;;-144.05;77.78;125687.94;5016641;28;20033;-81
2022/10/20 07:06:38;;;;;;;16.23;9.77;;;7.80;99.90;;;-144.05;77.49;125687.94;5016130;28;20037;-81
2022/10/20 07:09:10;;;;;;;12.60;9.13;;;7.90;99.90;;;-144.05;77.08;125687.94;5016762;28;20026;-81
2022/10/20 07:11:37;;;;;;;18.08;11.25;;;8.00;99.90;;;-144.05;76.77;125687.94;4998553;28;20029;-80
2022/10/20 07:14:04;;;;;;;15.77;10.60;;;8.10;99.90;;;-144.05;76.48;125687.94;5015059;28;20034;-80
2022/10/20 07:16:33;;;;;;;17.85;10.30;;;8.10;99.90;;;-144.05;76.37;125687.94;5016020;28;20089;-80
2022/10/20 07:19:02;;;;;;;19.42;9.98;;;8.30;99.90;;;-144.05;76.24;125687.94;4998820;28;20041;-80
2022/10/20 07:21:30;;;;;;;13.95;9.45;;;8.30;99.90;;;-144.05;76.12;125687.94;5016549;28;20454;-80
2022/10/20 07:23:59;;;;;;;17.40;9.65;;;8.40;99.90;;;-144.05;76.28;125687.94;5015982;28;20452;-80
2022/10/20 07:26:30;;;;;;;13.15;9.30;;;8.60;99.90;;;-144.05;76.14;125687.94;5016265;28;20489;-80
2022/10/20 07:29:00;;;;;;;20.23;11.00;;;8.60;99.90;;;-144.05;75.72;125687.94;5016633;28;20045;-80
2022/10/20 07:31:29;;;;;;;15.38;10.02;;;8.70;99.90;;;-144.05;75.82;125687.94;5017722;28;20026;-80
2022/10/20 07:33:57;;;;;;;16.63;8.70;;;8.80;99.90;;;-144.05;74.73;125687.94;5017360;28;20086;-82
2022/10/20 07:36:28;;;;;;;16.85;9.25;;;8.80;99.90;;;-144.05;74.95;125687.94;5019806;28;20029;-79
2022/10/20 07:38:58;;;;;;;18.58;10.88;;;8.90;99.90;;;-144.05;74.84;125687.94;5019939;28;20030;-82
2022/10/20 07:41:26;;;;;;;18.35;10.23;;;9.00;99.90;;;-144.05;74.33;125687.94;5018178;28;20055;-80
2022/10/20 07:43:54;;;;;;;18.33;9.43;;;9.00;99.90;;;-144.05;74.10;125687.94;5018108;28;20185;-82
2022/10/20 07:46:21;;;;;;;15.90;9.10;;;9.10;99.90;;;-144.05;74.25;125687.94;5017106;28;20053;-80
2022/10/20 07:48:47;;;;;;;17.13;9.32;;;9.10;99.90;;;-144.05;73.99;125687.94;5017168;28;20053;-79
2022/10/20 07:51:29;;;;;;;18.60;9.93;;;9.20;99.90;;;-144.05;73.16;125687.94;5017642;28;20037;-80
2022/10/20 07:54:07;;;;;;;12.98;9.35;;;9.30;99.90;;;-144.05;73.03;125687.94;5016556;28;20097;-80
2022/10/20 07:56:39;;;;;;;18.13;9.75;;;9.40;99.90;;;-144.05;73.27;125687.94;5017623;28;20026;-83
2022/10/20 07:59:09;;;;;;;17.33;10.10;;;9.40;99.90;;;-144.05;73.07;125687.94;5016927;28;20135;-80
2022/10/20 08:01:35;;;;;;;13.90;10.48;;;9.50;99.90;;;-144.05;72.93;125687.94;5015714;28;20038;-80
2022/10/20 08:04:02;;;;;;;14.65;10.38;;;9.70;99.90;;;-144.05;72.63;125687.94;5017462;28;20037;-79
2022/10/20 08:06:28;;;;;;;15.30;10.15;;;9.80;99.90;;;-144.05;72.69;125687.94;5017786;28;20030;-79
2022/10/20 08:08:54;;;;;;;14.25;9.57;;;10.00;99.90;;;-144.05;71.86;125687.94;5021838;28;20030;-79
2022/10/20 08:11:21;;;;;;;17.65;9.48;;;10.20;99.90;;;-144.05;70.89;125687.94;5022488;28;20030;-80
2022/10/20 08:13:47;;;;;;;20.23;10.50;;;10.50;99.90;;;-144.05;69.86;125687.94;5022208;28;20026;-79
2022/10/20 08:16:14;;;;;;;17.40;9.55;;;10.80;99.90;;;-144.05;69.37;125687.94;5023156;28;20053;-81
2022/10/20 08:18:41;;;;;;;18.27;10.63;;;11.10;99.90;;;-144.05;68.45;125687.94;5022455;28;20038;-79
2022/10/20 08:21:21;;;;;;;17.30;10.23;;;11.30;99.90;;;-144.05;67.20;125687.94;5022292;28;20026;-81
2022/10/20 08:23:49;;;;;;;15.65;10.20;;;11.60;99.90;;;-144.05;66.88;125687.94;5022390;28;20037;-79
2022/10/20 08:26:25;;;;;;;19.23;9.63;;;11.80;99.90;;;-144.05;68.25;125687.94;5020767;28;20037;-81
2022/10/20 08:28:54;;;;;;;11.95;8.27;;;12.20;99.90;;;-144.05;68.43;125687.94;5021942;28;20026;-79
2022/10/20 08:31:21;;;;;;;15.48;8.95;;;12.50;99.90;;;-144.05;68.30;125687.94;5021734;28;20022;-80
2022/10/20 08:33:47;;;;;;;8.95;6.13;;;12.90;99.90;;;-144.05;69.95;125687.94;5021689;28;20044;-78
2022/10/20 08:36:14;;;;;;;11.00;5.65;;;13.30;99.90;;;-144.05;69.08;125687.94;5020197;28;20025;-81
2022/10/20 08:38:42;;;;;;;15.80;9.73;;;13.90;99.90;;;-144.05;63.44;125687.94;5021090;28;20349;-81
2022/10/20 08:41:34;;;;;;;13.55;8.32;;;13.80;99.90;;;-144.05;63.31;125687.94;5003401;28;20037;-81
2022/10/20 08:44:05;;;;;;;16.55;8.85;;;13.60;99.90;;;-144.05;63.25;125687.94;5021049;28;20025;-82
2022/10/20 08:46:39;;;;;;;13.48;8.25;;;13.30;99.90;;;-144.05;63.80;125687.94;5018991;28;20033;-81
2022/10/20 08:49:19;;;;;;;15.65;9.00;;;13.20;99.90;;;-144.05;64.68;125687.94;5002338;28;20103;-81
2022/10/20 08:51:46;;;;;;;18.52;8.65;;;13.20;99.90;;;-144.05;65.77;125687.94;5019898;28;20088;-80
2022/10/20 08:54:15;;;;;;;14.30;7.72;;;13.10;99.90;;;-144.05;65.70;125687.94;5020405;28;20121;-80
2022/10/20 08:56:43;;;;;;;18.48;9.00;;;13.20;99.90;;;-144.05;66.72;125687.94;5018433;28;20049;-80
2022/10/20 08:59:37;;;;;;;16.20;8.02;;;13.30;99.90;;;-144.05;66.08;125687.94;5020112;28;20026;-81
2022/10/20 09:02:15;;;;;;;16.35;8.73;;;13.50;99.90;;;-144.05;65.28;125687.94;5018984;28;20037;-81
2022/10/20 09:05:05;;;;;;;13.88;8.02;;;13.60;99.90;;;-144.05;65.94;125687.94;5018132;28;20390;-82
2022/10/20 09:07:37;;;;;;;10.73;6.25;;;13.90;99.90;;;-144.05;66.16;125687.94;4999151;28;20030;-81
2022/10/20 09:10:15;;;;;;;9.05;6.22;;;14.30;99.90;;;-144.05;67.02;125687.94;5017402;28;20030;-81
2022/10/20 09:12:46;;;;;;;8.48;5.18;;;14.80;99.90;;;-144.05;65.86;125687.94;5002244;28;20172;-82
2022/10/20 09:15:16;;;;;;;10.60;5.15;;;15.20;99.90;;;-144.05;64.23;125687.94;5003120;28;20033;-81
2022/10/20 09:18:09;;;;;;;12.48;5.45;;;15.50;99.90;;;-144.05;63.08;125687.94;5019574;28;20053;-83
2022/10/20 09:21:10;;;;;;;6.10;4.93;;;15.70;99.90;;;-144.05;62.84;125687.94;5019099;28;20032;-82
2022/10/20 09:24:03;;;;;;;6.55;4.50;;;15.90;99.90;;;-144.05;62.79;125687.94;4984340;28;20053;-83
2022/10/20 09:26:46;;;;;;;9.10;4.72;;;16.00;99.90;;;-144.05;62.27;125687.94;5019744;28;20104;-82
2022/10/20 09:29:20;;;;;;;13.20;5.07;;;16.10;99.90;;;-144.05;60.63;125687.94;5020583;28;20034;-83
2022/10/20 09:31:53;;;;;;;10.93;4.13;;;16.30;99.90;;;-144.05;60.05;125687.94;5006057;28;20029;-83
2022/10/20 09:34:26;;;;;;;9.73;4.20;;;16.50;99.90;;;-144.05;58.14;125687.94;5020651;28;20041;-83
2022/10/20 09:37:15;;;;;;;12.27;5.15;;;16.80;99.90;;;-144.05;57.95;125687.94;5021582;28;20030;-82
2022/10/20 09:39:57;;;;;;;9.85;4.70;;;16.70;99.90;;;-144.05;58.98;125687.94;5021837;28;20033;-83
2022/10/20 09:42:34;;;;;;;9.30;5.15;;;16.50;99.90;;;-144.05;59.38;125687.94;5003540;28;20049;-82
2022/10/20 09:45:22;;;;;;;6.20;4.45;;;16.40;99.90;;;-144.05;59.25;125687.94;5021707;28;20030;-82
2022/10/20 09:48:00;;;;;;;8.25;5.00;;;16.30;99.90;;;-144.05;58.83;125687.94;5019897;28;20100;-81
2022/10/20 09:50:37;;;;;;;8.55;5.60;;;16.20;99.90;;;-144.05;59.23;125687.94;5019359;28;20053;-82
2022/10/20 09:53:18;;;;;;;6.75;4.70;;;16.30;99.90;;;-144.05;59.00;125687.94;5019338;28;20504;-82
2022/10/20 09:55:49;;;;;;;10.75;4.80;;;16.40;99.90;;;-144.05;58.39;125687.94;5018502;28;20285;-82
2022/10/20 09:58:33;;;;;;;7.65;4.13;;;16.50;99.90;;;-144.05;58.02;125687.94;5017942;28;20042;-82
2022/10/20 10:01:10;;;;;;;10.15;4.72;;;16.70;99.90;;;-144.05;57.53;125687.94;4999975;28;20068;-82
2022/10/20 10:03:48;;;;;;;7.90;4.95;;;16.70;99.90;;;-144.05;57.08;125687.94;4999955;28;20036;-81
2022/10/20 10:06:42;;;;;;;9.65;5.15;;;16.70;99.90;;;-144.05;57.41;125687.94;5016486;28;20034;-82
2022/10/20 10:09:36;;;;;;;8.05;4.68;;;16.70;99.90;;;-144.05;58.18;125687.94;5017732;28;20022;-81
2022/10/20 10:12:18;;;;;;;8.93;5.13;;;16.60;99.90;;;-144.05;58.14;125687.94;5000603;28;20084;-83
2022/10/20 10:15:30;;;;;;;5.40;4.57;;;16.50;99.90;;;-144.05;58.32;125687.94;5019457;28;20068;-81
2022/10/20 10:17:58;;;;;;;10.05;4.93;;;16.50;99.90;;;-144.05;58.34;125687.94;4998908;28;20164;-80
2022/10/20 10:20:31;;;;;;;6.85;4.57;;;16.50;99.90;;;-144.05;57.89;125687.94;5018446;28;20046;-82